sensor_id;sensor_type;location;lat;lon;timestamp;temperature;humidity
18335;DHT22;9293;49.524;10.964;2023-04-06T00:00:35;1.30;99.90
18335;DHT22;9293;49.524;10.964;2023-04-06T00:03:03;1.30;99.90
18335;DHT22;9293;49.524;10.964;2023-04-06T00:05:31;1.20;99.90
18335;DHT22;9293;49.524;10.964;2023-04-06T00:07:59;1.10;99.90
18335;DHT22;9293;49.524;10.964;2023-04-06T00:10:28;1.10;99.90
18335;DHT22;9293;49.524;10.964;2023-04-06T00:12:56;1.00;99.90
18335;DHT22;9293;49.524;10.964;2023-04-06T00:15:25;0.90;99.90
18335;DHT22;9293;49.524;10.964;2023-04-06T00:17:54;0.80;99.90
18335;DHT22;9293;49.524;10.964;2023-04-06T00:20:23;0.70;99.90
18335;DHT22;9293;49.524;10.964;2023-04-06T00:22:52;0.70;99.90
18335;DHT22;9293;49.524;10.964;2023-04-06T00:25:20;0.60;99.90
18335;DHT22;9293;49.524;10.964;2023-04-06T00:27:48;0.60;99.90
18335;DHT22;9293;49.524;10.964;2023-04-06T00:30:16;0.60;99.90
18335;DHT22;9293;49.524;10.964;2023-04-06T00:32:44;0.50;99.90
18335;DHT22;9293;49.524;10.964;2023-04-06T00:35:12;0.50;99.90
18335;DHT22;9293;49.524;10.964;2023-04-06T00:37:40;0.50;99.90
18335;DHT22;9293;49.524;10.964;2023-04-06T00:40:08;0.50;99.90
18335;DHT22;9293;49.524;10.964;2023-04-06T00:42:37;0.50;99.90
18335;DHT22;9293;49.524;10.964;2023-04-06T00:45:05;0.50;99.90
18335;DHT22;9293;49.524;10.964;2023-04-06T00:47:33;0.60;99.90
18335;DHT22;9293;49.524;10.964;2023-04-06T00:50:01;0.60;99.90
18335;DHT22;9293;49.524;10.964;2023-04-06T00:52:29;0.70;99.90
18335;DHT22;9293;49.524;10.964;2023-04-06T00:54:58;0.60;99.90
18335;DHT22;9293;49.524;10.964;2023-04-06T00:57:27;0.60;99.90
18335;DHT22;9293;49.524;10.964;2023-04-06T00:59:55;0.50;99.90
18335;DHT22;9293;49.524;10.964;2023-04-06T01:02:23;0.50;99.90
18335;DHT22;9293;49.524;10.964;2023-04-06T02:39:20;-0.20;99.90
18335;DHT22;9293;49.524;10.964;2023-04-06T02:41:49;-0.20;99.90
18335;DHT22;9293;49.524;10.964;2023-04-06T02:44:21;-0.30;99.90
18335;DHT22;9293;49.524;10.964;2023-04-06T02:46:49;-0.30;99.90
18335;DHT22;9293;49.524;10.964;2023-04-06T02:49:20;-0.20;99.90
18335;DHT22;9293;49.524;10.964;2023-04-06T02:51:53;-0.30;99.90
18335;DHT22;9293;49.524;10.964;2023-04-06T02:54:26;-0.30;99.90
18335;DHT22;9293;49.524;10.964;2023-04-06T02:56:54;-0.40;99.90
18335;DHT22;9293;49.524;10.964;2023-04-06T02:59:28;-0.40;99.90
18335;DHT22;9293;49.524;10.964;2023-04-06T03:02:05;-0.50;99.90
18335;DHT22;9293;49.524;10.964;2023-04-06T03:04:34;-0.50;99.90
18335;DHT22;9293;49.524;10.964;2023-04-06T03:07:06;-0.40;99.90
18335;DHT22;9293;49.524;10.964;2023-04-06T03:09:37;-0.40;99.90
18335;DHT22;9293;49.524;10.964;2023-04-06T03:12:06;-0.40;99.90
18335;DHT22;9293;49.524;10.964;2023-04-06T03:14:55;-0.50;99.90
18335;DHT22;9293;49.524;10.964;2023-04-06T03:17:24;-0.60;99.90
18335;DHT22;9293;49.524;10.964;2023-04-06T03:19:56;-0.60;99.90
18335;DHT22;9293;49.524;10.964;2023-04-06T03:22:24;-0.50;99.90
18335;DHT22;9293;49.524;10.964;2023-04-06T03:24:52;-0.40;99.90
18335;DHT22;9293;49.524;10.964;2023-04-06T03:27:21;-0.50;99.90
18335;DHT22;9293;49.524;10.964;2023-04-06T03:29:49;-0.50;99.90
18335;DHT22;9293;49.524;10.964;2023-04-06T03:32:24;-0.50;99.90
18335;DHT22;9293;49.524;10.964;2023-04-06T03:34:53;-0.50;99.90
18335;DHT22;9293;49.524;10.964;2023-04-06T03:37:21;-0.60;99.90
18335;DHT22;9293;49.524;10.964;2023-04-06T03:39:53;-0.60;99.90
18335;DHT22;9293;49.524;10.964;2023-04-06T03:42:24;-0.70;99.90
18335;DHT22;9293;49.524;10.964;2023-04-06T03:44:57;-0.70;99.90
18335;DHT22;9293;49.524;10.964;2023-04-06T03:47:25;-0.80;99.90
18335;DHT22;9293;49.524;10.964;2023-04-06T03:49:58;-0.70;99.90
18335;DHT22;9293;49.524;10.964;2023-04-06T03:52:26;-0.70;99.90
18335;DHT22;9293;49.524;10.964;2023-04-06T03:54:54;-0.70;99.90
18335;DHT22;9293;49.524;10.964;2023-04-06T03:57:22;-0.70;99.90
18335;DHT22;9293;49.524;10.964;2023-04-06T03:59:50;-0.70;99.90
18335;DHT22;9293;49.524;10.964;2023-04-06T04:02:18;-0.80;99.90
18335;DHT22;9293;49.524;10.964;2023-04-06T04:04:49;-0.70;99.90
18335;DHT22;9293;49.524;10.964;2023-04-06T04:07:17;-0.80;99.90
18335;DHT22;9293;49.524;10.964;2023-04-06T04:09:45;-0.80;99.90
18335;DHT22;9293;49.524;10.964;2023-04-06T04:12:13;-0.80;99.90
18335;DHT22;9293;49.524;10.964;2023-04-06T04:14:43;-0.80;99.90
18335;DHT22;9293;49.524;10.964;2023-04-06T04:17:14;-0.90;99.90
18335;DHT22;9293;49.524;10.964;2023-04-06T04:19:45;-0.90;99.90
18335;DHT22;9293;49.524;10.964;2023-04-06T04:22:15;-0.90;99.90
18335;DHT22;9293;49.524;10.964;2023-04-06T04:24:43;-0.90;99.90
18335;DHT22;9293;49.524;10.964;2023-04-06T04:27:11;-0.90;99.90
18335;DHT22;9293;49.524;10.964;2023-04-06T04:29:40;-0.80;99.90
18335;DHT22;9293;49.524;10.964;2023-04-06T04:32:10;-0.80;99.90
18335;DHT22;9293;49.524;10.964;2023-04-06T04:34:39;-0.80;99.90
18335;DHT22;9293;49.524;10.964;2023-04-06T04:37:15;-0.80;99.90
18335;DHT22;9293;49.524;10.964;2023-04-06T04:39:54;-0.80;99.90
18335;DHT22;9293;49.524;10.964;2023-04-06T04:42:23;-0.80;99.90
18335;DHT22;9293;49.524;10.964;2023-04-06T04:44:54;-0.80;99.90
18335;DHT22;9293;49.524;10.964;2023-04-06T04:47:41;-0.90;99.90
18335;DHT22;9293;49.524;10.964;2023-04-06T04:50:11;-0.90;99.90
18335;DHT22;9293;49.524;10.964;2023-04-06T04:52:43;-0.90;99.90
18335;DHT22;9293;49.524;10.964;2023-04-06T04:55:31;-1.00;99.90
18335;DHT22;9293;49.524;10.964;2023-04-06T04:58:00;-0.90;99.90
18335;DHT22;9293;49.524;10.964;2023-04-06T05:00:47;-1.00;99.90
18335;DHT22;9293;49.524;10.964;2023-04-06T05:03:19;-0.90;99.90
18335;DHT22;9293;49.524;10.964;2023-04-06T05:05:55;-0.90;99.90
18335;DHT22;9293;49.524;10.964;2023-04-06T05:08:27;-0.90;99.90
18335;DHT22;9293;49.524;10.964;2023-04-06T05:10:56;-0.90;99.90
18335;DHT22;9293;49.524;10.964;2023-04-06T05:13:25;-0.90;99.90
18335;DHT22;9293;49.524;10.964;2023-04-06T05:15:55;-0.90;99.90
18335;DHT22;9293;49.524;10.964;2023-04-06T05:18:27;-0.90;99.90
18335;DHT22;9293;49.524;10.964;2023-04-06T05:20:56;-0.90;99.90
18335;DHT22;9293;49.524;10.964;2023-04-06T05:23:47;-0.80;99.90
18335;DHT22;9293;49.524;10.964;2023-04-06T05:26:16;-0.70;99.90
18335;DHT22;9293;49.524;10.964;2023-04-06T05:28:45;-0.70;99.90
18335;DHT22;9293;49.524;10.964;2023-04-06T05:31:14;-0.50;99.90
18335;DHT22;9293;49.524;10.964;2023-04-06T05:33:47;-0.50;99.90
18335;DHT22;9293;49.524;10.964;2023-04-06T05:36:23;-0.40;99.90
18335;DHT22;9293;49.524;10.964;2023-04-06T05:38:51;-0.30;99.90
18335;DHT22;9293;49.524;10.964;2023-04-06T05:41:46;-0.20;99.90
18335;DHT22;9293;49.524;10.964;2023-04-06T05:44:26;-0.10;99.90
18335;DHT22;9293;49.524;10.964;2023-04-06T05:47:03;0.10;99.90
18335;DHT22;9293;49.524;10.964;2023-04-06T05:49:32;0.20;99.90
18335;DHT22;9293;49.524;10.964;2023-04-06T05:52:01;0.40;99.90
18335;DHT22;9293;49.524;10.964;2023-04-06T05:54:31;0.50;99.90
18335;DHT22;9293;49.524;10.964;2023-04-06T05:57:04;0.50;99.90
18335;DHT22;9293;49.524;10.964;2023-04-06T05:59:32;0.60;99.90
18335;DHT22;9293;49.524;10.964;2023-04-06T06:02:01;0.70;99.90
18335;DHT22;9293;49.524;10.964;2023-04-06T06:04:32;0.80;99.90
18335;DHT22;9293;49.524;10.964;2023-04-06T06:07:01;0.90;99.90
18335;DHT22;9293;49.524;10.964;2023-04-06T06:09:41;1.00;99.90
18335;DHT22;9293;49.524;10.964;2023-04-06T06:12:18;1.20;99.90
18335;DHT22;9293;49.524;10.964;2023-04-06T06:14:48;1.50;99.90
18335;DHT22;9293;49.524;10.964;2023-04-06T06:17:20;2.00;99.90
18335;DHT22;9293;49.524;10.964;2023-04-06T06:19:50;2.50;99.90
18335;DHT22;9293;49.524;10.964;2023-04-06T06:22:19;3.10;99.90
18335;DHT22;9293;49.524;10.964;2023-04-06T06:24:49;3.50;99.90
18335;DHT22;9293;49.524;10.964;2023-04-06T06:27:19;4.00;99.90
18335;DHT22;9293;49.524;10.964;2023-04-06T06:29:48;4.50;99.90
18335;DHT22;9293;49.524;10.964;2023-04-06T06:32:17;4.90;99.90
18335;DHT22;9293;49.524;10.964;2023-04-06T06:34:49;5.30;99.90
18335;DHT22;9293;49.524;10.964;2023-04-06T06:37:18;5.60;99.90
18335;DHT22;9293;49.524;10.964;2023-04-06T06:39:47;6.00;99.90
18335;DHT22;9293;49.524;10.964;2023-04-06T06:42:17;6.30;99.90
18335;DHT22;9293;49.524;10.964;2023-04-06T06:45:11;6.70;99.90
18335;DHT22;9293;49.524;10.964;2023-04-06T06:47:40;7.00;99.90
18335;DHT22;9293;49.524;10.964;2023-04-06T06:50:10;7.20;99.90
18335;DHT22;9293;49.524;10.964;2023-04-06T06:52:39;7.60;99.90
18335;DHT22;9293;49.524;10.964;2023-04-06T06:55:08;7.60;99.90
18335;DHT22;9293;49.524;10.964;2023-04-06T06:57:37;7.90;99.90
18335;DHT22;9293;49.524;10.964;2023-04-06T07:00:10;8.30;99.90
18335;DHT22;9293;49.524;10.964;2023-04-06T07:02:43;8.70;99.90
18335;DHT22;9293;49.524;10.964;2023-04-06T07:05:12;8.70;99.90
18335;DHT22;9293;49.524;10.964;2023-04-06T07:07:55;8.90;99.90
18335;DHT22;9293;49.524;10.964;2023-04-06T07:10:24;9.00;99.90
18335;DHT22;9293;49.524;10.964;2023-04-06T07:12:53;9.30;99.90
18335;DHT22;9293;49.524;10.964;2023-04-06T07:15:22;9.80;99.90
18335;DHT22;9293;49.524;10.964;2023-04-06T07:17:51;10.20;99.90
18335;DHT22;9293;49.524;10.964;2023-04-06T07:20:20;10.30;99.90
18335;DHT22;9293;49.524;10.964;2023-04-06T07:22:48;10.00;99.90
18335;DHT22;9293;49.524;10.964;2023-04-06T07:25:16;10.30;99.90
18335;DHT22;9293;49.524;10.964;2023-04-06T07:27:45;10.70;99.90
18335;DHT22;9293;49.524;10.964;2023-04-06T07:30:14;11.20;99.90
18335;DHT22;9293;49.524;10.964;2023-04-06T07:32:42;11.40;99.90
18335;DHT22;9293;49.524;10.964;2023-04-06T07:35:11;11.70;99.90
18335;DHT22;9293;49.524;10.964;2023-04-06T07:37:40;12.00;99.90
18335;DHT22;9293;49.524;10.964;2023-04-06T07:40:10;12.30;99.90
18335;DHT22;9293;49.524;10.964;2023-04-06T07:42:39;12.70;99.90
18335;DHT22;9293;49.524;10.964;2023-04-06T07:45:12;12.70;99.90
18335;DHT22;9293;49.524;10.964;2023-04-06T07:47:42;12.50;99.90
18335;DHT22;9293;49.524;10.964;2023-04-06T07:50:11;12.90;99.90
18335;DHT22;9293;49.524;10.964;2023-04-06T07:52:39;13.30;99.90
18335;DHT22;9293;49.524;10.964;2023-04-06T07:55:08;13.30;99.90
18335;DHT22;9293;49.524;10.964;2023-04-06T07:57:36;13.70;99.90
18335;DHT22;9293;49.524;10.964;2023-04-06T08:00:05;14.20;99.40
18335;DHT22;9293;49.524;10.964;2023-04-06T08:02:53;14.20;95.30
18335;DHT22;9293;49.524;10.964;2023-04-06T08:05:21;14.10;96.00
18335;DHT22;9293;49.524;10.964;2023-04-06T08:07:49;14.30;95.60
18335;DHT22;9293;49.524;10.964;2023-04-06T08:10:18;14.40;94.00
18335;DHT22;9293;49.524;10.964;2023-04-06T08:12:46;14.50;94.70
18335;DHT22;9293;49.524;10.964;2023-04-06T08:15:14;14.60;94.20
18335;DHT22;9293;49.524;10.964;2023-04-06T08:17:42;14.90;93.90
18335;DHT22;9293;49.524;10.964;2023-04-06T08:20:11;14.90;92.70
18335;DHT22;9293;49.524;10.964;2023-04-06T08:22:39;15.00;92.60
18335;DHT22;9293;49.524;10.964;2023-04-06T08:25:08;14.80;92.60
18335;DHT22;9293;49.524;10.964;2023-04-06T08:27:40;15.10;92.80
18335;DHT22;9293;49.524;10.964;2023-04-06T08:30:08;15.70;92.50
18335;DHT22;9293;49.524;10.964;2023-04-06T08:32:37;15.60;91.70
18335;DHT22;9293;49.524;10.964;2023-04-06T08:35:05;15.70;91.90
18335;DHT22;9293;49.524;10.964;2023-04-06T08:37:34;15.90;91.00
18335;DHT22;9293;49.524;10.964;2023-04-06T08:40:03;16.00;90.60
18335;DHT22;9293;49.524;10.964;2023-04-06T08:42:36;15.90;89.00
18335;DHT22;9293;49.524;10.964;2023-04-06T08:45:09;15.80;91.00
18335;DHT22;9293;49.524;10.964;2023-04-06T08:47:40;16.10;89.70
18335;DHT22;9293;49.524;10.964;2023-04-06T08:50:12;16.20;89.40
18335;DHT22;9293;49.524;10.964;2023-04-06T08:52:40;16.50;89.10
18335;DHT22;9293;49.524;10.964;2023-04-06T08:55:11;17.10;88.50
18335;DHT22;9293;49.524;10.964;2023-04-06T08:57:39;17.40;87.00
18335;DHT22;9293;49.524;10.964;2023-04-06T09:00:09;17.70;84.90
18335;DHT22;9293;49.524;10.964;2023-04-06T09:02:38;17.40;86.10
18335;DHT22;9293;49.524;10.964;2023-04-06T09:05:07;16.90;85.70
18335;DHT22;9293;49.524;10.964;2023-04-06T09:07:36;16.70;84.80
18335;DHT22;9293;49.524;10.964;2023-04-06T09:10:04;16.50;83.70
18335;DHT22;9293;49.524;10.964;2023-04-06T09:12:34;16.30;84.20
18335;DHT22;9293;49.524;10.964;2023-04-06T09:15:02;16.10;84.00
18335;DHT22;9293;49.524;10.964;2023-04-06T09:17:31;16.20;82.30
18335;DHT22;9293;49.524;10.964;2023-04-06T09:20:02;15.80;81.50
18335;DHT22;9293;49.524;10.964;2023-04-06T09:22:35;15.70;85.60
18335;DHT22;9293;49.524;10.964;2023-04-06T09:25:03;15.80;83.10
18335;DHT22;9293;49.524;10.964;2023-04-06T09:27:35;15.70;85.50
18335;DHT22;9293;49.524;10.964;2023-04-06T09:32:43;16.10;86.40
18335;DHT22;9293;49.524;10.964;2023-04-06T09:35:12;16.20;82.70
18335;DHT22;9293;49.524;10.964;2023-04-06T09:37:44;16.20;83.90
18335;DHT22;9293;49.524;10.964;2023-04-06T09:40:12;15.90;82.80
18335;DHT22;9293;49.524;10.964;2023-04-06T09:42:41;14.90;83.60
18335;DHT22;9293;49.524;10.964;2023-04-06T09:45:10;15.10;86.30
18335;DHT22;9293;49.524;10.964;2023-04-06T09:47:43;15.70;83.80
18335;DHT22;9293;49.524;10.964;2023-04-06T09:50:14;16.10;79.90
18335;DHT22;9293;49.524;10.964;2023-04-06T09:52:48;16.20;78.40
18335;DHT22;9293;49.524;10.964;2023-04-06T09:55:22;16.30;74.70
18335;DHT22;9293;49.524;10.964;2023-04-06T09:58:01;15.70;75.00
18335;DHT22;9293;49.524;10.964;2023-04-06T10:00:32;15.30;78.20
18335;DHT22;9293;49.524;10.964;2023-04-06T10:08:13;15.60;76.80
18335;DHT22;9293;49.524;10.964;2023-04-06T10:10:41;15.70;76.10
18335;DHT22;9293;49.524;10.964;2023-04-06T10:13:10;15.70;75.40
18335;DHT22;9293;49.524;10.964;2023-04-06T10:15:39;15.80;76.30
18335;DHT22;9293;49.524;10.964;2023-04-06T10:18:10;16.30;78.70
18335;DHT22;9293;49.524;10.964;2023-04-06T10:20:39;16.50;75.80
18335;DHT22;9293;49.524;10.964;2023-04-06T10:23:12;16.60;77.00
18335;DHT22;9293;49.524;10.964;2023-04-06T10:25:52;16.80;75.30
18335;DHT22;9293;49.524;10.964;2023-04-06T10:28:21;16.50;72.60
18335;DHT22;9293;49.524;10.964;2023-04-06T10:30:49;16.20;75.30
18335;DHT22;9293;49.524;10.964;2023-04-06T10:33:24;15.80;71.00
18335;DHT22;9293;49.524;10.964;2023-04-06T10:35:52;14.90;74.30
18335;DHT22;9293;49.524;10.964;2023-04-06T10:38:20;15.10;74.70
18335;DHT22;9293;49.524;10.964;2023-04-06T10:40:49;15.40;74.50
18335;DHT22;9293;49.524;10.964;2023-04-06T10:43:21;15.40;72.70
18335;DHT22;9293;49.524;10.964;2023-04-06T10:45:57;15.40;74.00
18335;DHT22;9293;49.524;10.964;2023-04-06T10:48:35;15.50;73.90
18335;DHT22;9293;49.524;10.964;2023-04-06T10:51:06;15.20;72.30
18335;DHT22;9293;49.524;10.964;2023-04-06T10:53:35;14.90;76.40
18335;DHT22;9293;49.524;10.964;2023-04-06T10:56:03;14.90;76.00
18335;DHT22;9293;49.524;10.964;2023-04-06T10:58:31;15.40;72.90
18335;DHT22;9293;49.524;10.964;2023-04-06T11:01:00;15.80;73.00
18335;DHT22;9293;49.524;10.964;2023-04-06T11:03:28;15.90;73.40
18335;DHT22;9293;49.524;10.964;2023-04-06T11:05:56;16.20;71.80
18335;DHT22;9293;49.524;10.964;2023-04-06T11:08:27;16.20;71.10
18335;DHT22;9293;49.524;10.964;2023-04-06T11:11:11;16.30;71.00
18335;DHT22;9293;49.524;10.964;2023-04-06T11:13:44;16.40;70.90
18335;DHT22;9293;49.524;10.964;2023-04-06T11:16:13;16.00;72.30
18335;DHT22;9293;49.524;10.964;2023-04-06T11:18:58;16.00;70.00
18335;DHT22;9293;49.524;10.964;2023-04-06T11:21:37;16.10;72.10
18335;DHT22;9293;49.524;10.964;2023-04-06T11:24:14;16.50;73.40
18335;DHT22;9293;49.524;10.964;2023-04-06T11:26:43;16.80;72.90
18335;DHT22;9293;49.524;10.964;2023-04-06T11:29:17;16.80;71.40
18335;DHT22;9293;49.524;10.964;2023-04-06T11:31:46;16.80;74.10
18335;DHT22;9293;49.524;10.964;2023-04-06T11:34:18;17.00;70.40
18335;DHT22;9293;49.524;10.964;2023-04-06T11:36:57;17.10;75.10
18335;DHT22;9293;49.524;10.964;2023-04-06T11:39:26;17.30;70.40
18335;DHT22;9293;49.524;10.964;2023-04-06T11:42:01;17.00;70.20
18335;DHT22;9293;49.524;10.964;2023-04-06T11:44:38;16.80;70.30
18335;DHT22;9293;49.524;10.964;2023-04-06T11:47:08;17.00;71.80
18335;DHT22;9293;49.524;10.964;2023-04-06T11:49:37;16.90;67.80
18335;DHT22;9293;49.524;10.964;2023-04-06T11:52:18;16.70;68.40
18335;DHT22;9293;49.524;10.964;2023-04-06T11:54:47;16.40;69.40
18335;DHT22;9293;49.524;10.964;2023-04-06T11:57:16;16.50;67.60
18335;DHT22;9293;49.524;10.964;2023-04-06T11:59:44;16.50;73.30
18335;DHT22;9293;49.524;10.964;2023-04-06T12:02:12;16.30;68.30
18335;DHT22;9293;49.524;10.964;2023-04-06T12:04:41;16.30;67.30
18335;DHT22;9293;49.524;10.964;2023-04-06T12:07:09;16.30;67.40
18335;DHT22;9293;49.524;10.964;2023-04-06T12:09:37;16.50;68.80
18335;DHT22;9293;49.524;10.964;2023-04-06T12:12:06;16.40;70.00
18335;DHT22;9293;49.524;10.964;2023-04-06T12:14:34;16.40;67.20
18335;DHT22;9293;49.524;10.964;2023-04-06T12:17:03;16.60;68.10
18335;DHT22;9293;49.524;10.964;2023-04-06T12:19:31;16.60;67.00
18335;DHT22;9293;49.524;10.964;2023-04-06T12:21:59;16.50;67.80
18335;DHT22;9293;49.524;10.964;2023-04-06T12:24:29;16.70;71.20
18335;DHT22;9293;49.524;10.964;2023-04-06T12:27:02;17.20;71.70
18335;DHT22;9293;49.524;10.964;2023-04-06T12:29:36;17.50;68.40
18335;DHT22;9293;49.524;10.964;2023-04-06T12:32:05;17.60;66.80
18335;DHT22;9293;49.524;10.964;2023-04-06T12:34:34;16.90;68.20
18335;DHT22;9293;49.524;10.964;2023-04-06T12:37:02;16.80;71.30
18335;DHT22;9293;49.524;10.964;2023-04-06T12:39:30;17.10;67.10
18335;DHT22;9293;49.524;10.964;2023-04-06T12:41:59;17.00;66.20
18335;DHT22;9293;49.524;10.964;2023-04-06T12:44:27;16.90;74.30
18335;DHT22;9293;49.524;10.964;2023-04-06T12:46:55;17.20;69.40
18335;DHT22;9293;49.524;10.964;2023-04-06T12:49:24;17.00;68.60
18335;DHT22;9293;49.524;10.964;2023-04-06T12:51:52;17.00;66.40
18335;DHT22;9293;49.524;10.964;2023-04-06T12:54:20;17.20;65.60
18335;DHT22;9293;49.524;10.964;2023-04-06T12:56:48;17.40;63.70
18335;DHT22;9293;49.524;10.964;2023-04-06T12:59:16;17.40;67.80
18335;DHT22;9293;49.524;10.964;2023-04-06T13:01:44;17.50;69.80
18335;DHT22;9293;49.524;10.964;2023-04-06T13:04:13;17.40;66.70
18335;DHT22;9293;49.524;10.964;2023-04-06T13:06:41;17.40;67.70
18335;DHT22;9293;49.524;10.964;2023-04-06T13:09:09;17.60;67.90
18335;DHT22;9293;49.524;10.964;2023-04-06T13:11:38;17.80;68.70
18335;DHT22;9293;49.524;10.964;2023-04-06T13:14:06;18.10;69.20
18335;DHT22;9293;49.524;10.964;2023-04-06T13:16:34;18.20;65.70
18335;DHT22;9293;49.524;10.964;2023-04-06T13:19:04;18.10;65.80
18335;DHT22;9293;49.524;10.964;2023-04-06T13:21:32;18.10;64.90
18335;DHT22;9293;49.524;10.964;2023-04-06T13:24:01;17.80;64.60
18335;DHT22;9293;49.524;10.964;2023-04-06T13:26:29;17.50;64.40
18335;DHT22;9293;49.524;10.964;2023-04-06T13:28:58;17.50;67.40
18335;DHT22;9293;49.524;10.964;2023-04-06T13:31:27;17.40;66.50
18335;DHT22;9293;49.524;10.964;2023-04-06T13:33:55;17.20;70.70
18335;DHT22;9293;49.524;10.964;2023-04-06T13:36:23;17.60;69.00
18335;DHT22;9293;49.524;10.964;2023-04-06T13:38:51;17.80;67.70
18335;DHT22;9293;49.524;10.964;2023-04-06T13:41:20;17.80;65.30
18335;DHT22;9293;49.524;10.964;2023-04-06T13:43:49;17.80;64.60
18335;DHT22;9293;49.524;10.964;2023-04-06T13:46:18;17.80;66.70
18335;DHT22;9293;49.524;10.964;2023-04-06T13:48:47;18.00;67.40
18335;DHT22;9293;49.524;10.964;2023-04-06T13:51:15;17.90;66.60
18335;DHT22;9293;49.524;10.964;2023-04-06T13:53:44;18.00;65.20
18335;DHT22;9293;49.524;10.964;2023-04-06T13:56:12;17.70;62.10
18335;DHT22;9293;49.524;10.964;2023-04-06T13:58:40;17.50;62.20
18335;DHT22;9293;49.524;10.964;2023-04-06T14:01:08;17.30;61.00
18335;DHT22;9293;49.524;10.964;2023-04-06T14:03:37;16.50;60.90
18335;DHT22;9293;49.524;10.964;2023-04-06T14:06:13;16.20;62.30
18335;DHT22;9293;49.524;10.964;2023-04-06T14:08:55;16.50;64.20
18335;DHT22;9293;49.524;10.964;2023-04-06T14:11:24;17.00;63.60
18335;DHT22;9293;49.524;10.964;2023-04-06T14:17:15;17.30;65.80
18335;DHT22;9293;49.524;10.964;2023-04-06T14:19:44;17.10;63.90
18335;DHT22;9293;49.524;10.964;2023-04-06T14:22:13;16.90;64.10
18335;DHT22;9293;49.524;10.964;2023-04-06T14:24:41;17.00;62.30
18335;DHT22;9293;49.524;10.964;2023-04-06T14:27:14;16.90;61.60
18335;DHT22;9293;49.524;10.964;2023-04-06T14:29:44;16.60;64.20
18335;DHT22;9293;49.524;10.964;2023-04-06T14:32:14;16.90;68.80
18335;DHT22;9293;49.524;10.964;2023-04-06T14:34:49;17.20;63.20
18335;DHT22;9293;49.524;10.964;2023-04-06T14:37:17;17.00;64.40
18335;DHT22;9293;49.524;10.964;2023-04-06T14:39:46;17.20;64.00
18335;DHT22;9293;49.524;10.964;2023-04-06T14:42:14;16.90;61.90
18335;DHT22;9293;49.524;10.964;2023-04-06T14:44:42;16.80;64.10
18335;DHT22;9293;49.524;10.964;2023-04-06T14:47:12;16.50;63.20
18335;DHT22;9293;49.524;10.964;2023-04-06T14:49:43;16.20;65.80
18335;DHT22;9293;49.524;10.964;2023-04-06T14:52:11;16.20;64.50
18335;DHT22;9293;49.524;10.964;2023-04-06T14:54:39;15.80;64.40
18335;DHT22;9293;49.524;10.964;2023-04-06T14:57:07;15.50;65.10
18335;DHT22;9293;49.524;10.964;2023-04-06T14:59:35;15.60;64.30
18335;DHT22;9293;49.524;10.964;2023-04-06T15:02:06;15.80;65.60
18335;DHT22;9293;49.524;10.964;2023-04-06T15:04:35;15.90;67.50
18335;DHT22;9293;49.524;10.964;2023-04-06T15:07:12;16.00;67.70
18335;DHT22;9293;49.524;10.964;2023-04-06T15:09:53;16.10;68.80
18335;DHT22;9293;49.524;10.964;2023-04-06T15:12:30;16.20;69.80
18335;DHT22;9293;49.524;10.964;2023-04-06T15:15:08;16.40;66.90
18335;DHT22;9293;49.524;10.964;2023-04-06T15:17:43;16.30;68.60
18335;DHT22;9293;49.524;10.964;2023-04-06T15:20:20;16.40;66.90
18335;DHT22;9293;49.524;10.964;2023-04-06T15:22:52;16.20;68.70
18335;DHT22;9293;49.524;10.964;2023-04-06T15:25:28;16.20;65.90
18335;DHT22;9293;49.524;10.964;2023-04-06T15:28:21;16.00;66.60
18335;DHT22;9293;49.524;10.964;2023-04-06T15:30:51;15.90;65.20
18335;DHT22;9293;49.524;10.964;2023-04-06T15:33:23;15.80;67.30
18335;DHT22;9293;49.524;10.964;2023-04-06T15:36:06;15.90;66.50
18335;DHT22;9293;49.524;10.964;2023-04-06T15:38:41;15.70;68.90
18335;DHT22;9293;49.524;10.964;2023-04-06T15:41:17;15.70;67.80
18335;DHT22;9293;49.524;10.964;2023-04-06T15:43:51;15.50;68.00
18335;DHT22;9293;49.524;10.964;2023-04-06T15:46:20;15.50;69.70
18335;DHT22;9293;49.524;10.964;2023-04-06T15:48:51;15.50;69.50
18335;DHT22;9293;49.524;10.964;2023-04-06T15:51:23;15.40;70.00
18335;DHT22;9293;49.524;10.964;2023-04-06T15:53:51;15.20;69.90
18335;DHT22;9293;49.524;10.964;2023-04-06T15:56:19;15.10;67.50
18335;DHT22;9293;49.524;10.964;2023-04-06T15:58:47;15.00;68.20
18335;DHT22;9293;49.524;10.964;2023-04-06T16:01:17;15.00;68.30
18335;DHT22;9293;49.524;10.964;2023-04-06T16:03:48;14.90;67.40
18335;DHT22;9293;49.524;10.964;2023-04-06T16:06:17;14.80;68.50
18335;DHT22;9293;49.524;10.964;2023-04-06T16:08:45;14.50;68.10
18335;DHT22;9293;49.524;10.964;2023-04-06T16:11:14;14.40;68.10
18335;DHT22;9293;49.524;10.964;2023-04-06T16:13:43;14.50;67.60
18335;DHT22;9293;49.524;10.964;2023-04-06T16:16:21;14.40;69.60
18335;DHT22;9293;49.524;10.964;2023-04-06T16:18:51;14.40;68.60
18335;DHT22;9293;49.524;10.964;2023-04-06T16:21:19;14.20;67.60
18335;DHT22;9293;49.524;10.964;2023-04-06T16:23:47;13.80;67.60
18335;DHT22;9293;49.524;10.964;2023-04-06T16:26:15;13.60;69.60
18335;DHT22;9293;49.524;10.964;2023-04-06T16:28:47;13.70;71.20
18335;DHT22;9293;49.524;10.964;2023-04-06T16:33:51;13.70;70.30
18335;DHT22;9293;49.524;10.964;2023-04-06T16:36:25;13.80;71.30
18335;DHT22;9293;49.524;10.964;2023-04-06T16:39:00;13.70;71.10
18335;DHT22;9293;49.524;10.964;2023-04-06T16:41:28;13.30;69.70
18335;DHT22;9293;49.524;10.964;2023-04-06T16:43:56;13.10;70.30
18335;DHT22;9293;49.524;10.964;2023-04-06T16:46:31;13.00;70.40
18335;DHT22;9293;49.524;10.964;2023-04-06T16:49:03;13.00;72.40
18335;DHT22;9293;49.524;10.964;2023-04-06T16:51:40;13.00;70.90
18335;DHT22;9293;49.524;10.964;2023-04-06T16:54:08;13.00;70.40
18335;DHT22;9293;49.524;10.964;2023-04-06T16:56:39;12.90;70.50
18335;DHT22;9293;49.524;10.964;2023-04-06T16:59:07;12.80;70.00
18335;DHT22;9293;49.524;10.964;2023-04-06T17:01:35;12.80;72.70
18335;DHT22;9293;49.524;10.964;2023-04-06T17:04:04;12.80;71.60
18335;DHT22;9293;49.524;10.964;2023-04-06T17:06:32;12.70;72.10
18335;DHT22;9293;49.524;10.964;2023-04-06T17:09:01;12.70;73.10
18335;DHT22;9293;49.524;10.964;2023-04-06T17:11:29;12.60;73.00
18335;DHT22;9293;49.524;10.964;2023-04-06T17:14:11;12.60;72.80
18335;DHT22;9293;49.524;10.964;2023-04-06T17:16:40;12.50;71.70
18335;DHT22;9293;49.524;10.964;2023-04-06T17:19:08;12.40;73.90
18335;DHT22;9293;49.524;10.964;2023-04-06T17:21:37;12.30;74.10
18335;DHT22;9293;49.524;10.964;2023-04-06T17:24:05;12.00;75.10
18335;DHT22;9293;49.524;10.964;2023-04-06T17:26:34;11.80;77.00
18335;DHT22;9293;49.524;10.964;2023-04-06T17:29:02;11.70;79.00
18335;DHT22;9293;49.524;10.964;2023-04-06T17:31:31;11.50;80.70
18335;DHT22;9293;49.524;10.964;2023-04-06T17:33:59;11.40;81.30
18335;DHT22;9293;49.524;10.964;2023-04-06T17:36:27;11.20;83.50
18335;DHT22;9293;49.524;10.964;2023-04-06T17:38:56;11.00;85.60
18335;DHT22;9293;49.524;10.964;2023-04-06T17:41:24;10.80;85.80